createdAt,value
2023-02-16T00:01:50.980Z,12.48
2023-02-16T00:05:52.635Z,12.98
2023-02-16T00:09:54.072Z,12.30
2023-02-16T00:13:55.645Z,12.93
2023-02-16T00:18:00.145Z,11.48
2023-02-16T00:22:02.623Z,14.10
2023-02-16T00:26:05.810Z,12.85
2023-02-16T00:30:25.483Z,12.13
2023-02-16T00:34:40.005Z,11.95
2023-02-16T00:38:41.734Z,12.88
2023-02-16T00:42:46.035Z,12.27
2023-02-16T00:46:48.133Z,11.95
2023-02-16T00:50:49.939Z,13.48
2023-02-16T00:54:52.730Z,12.23
2023-02-16T00:58:54.313Z,13.77
2023-02-16T01:02:58.678Z,12.70
2023-02-16T01:07:18.539Z,11.18
2023-02-16T01:11:21.201Z,11.15
2023-02-16T01:15:25.889Z,12.10
2023-02-16T01:19:27.633Z,11.80
2023-02-16T01:23:29.508Z,11.82
2023-02-16T01:27:31.303Z,12.13
2023-02-16T01:31:33.115Z,12.52
2023-02-16T01:35:37.796Z,13.45
2023-02-16T01:39:39.504Z,12.98
2023-02-16T01:43:48.230Z,11.15
2023-02-16T01:47:56.509Z,12.30
2023-02-16T01:52:13.976Z,12.18
2023-02-16T01:56:37.187Z,12.00
2023-02-16T02:00:57.200Z,12.38
2023-02-16T02:05:33.569Z,12.30
2023-02-16T02:09:42.573Z,10.82
2023-02-16T02:13:55.563Z,11.85
2023-02-16T02:17:58.366Z,11.82
2023-02-16T02:22:37.918Z,10.70
2023-02-16T02:27:20.567Z,11.05
2023-02-16T02:31:56.971Z,11.95
2023-02-16T02:36:40.520Z,11.23
2023-02-16T02:41:14.972Z,10.40
2023-02-16T02:45:41.202Z,10.63
2023-02-16T02:49:54.917Z,10.73
2023-02-16T02:54:26.113Z,10.98
2023-02-16T02:59:11.659Z,10.27
2023-02-16T03:03:27.589Z,12.90
2023-02-16T03:07:47.018Z,11.15
2023-02-16T03:12:09.671Z,11.13
2023-02-16T03:16:23.594Z,11.57
2023-02-16T03:20:44.716Z,10.40
2023-02-16T03:25:05.414Z,11.02
2023-02-16T03:29:22.542Z,9.80
2023-02-16T03:33:25.577Z,11.25
2023-02-16T03:37:27.105Z,10.55
2023-02-16T03:41:33.561Z,11.60
2023-02-16T03:45:39.367Z,10.52
2023-02-16T03:49:41.075Z,11.32
2023-02-16T03:53:42.641Z,11.25
2023-02-16T03:57:44.508Z,10.38
2023-02-16T04:01:46.476Z,12.00
2023-02-16T04:05:48.018Z,10.13
2023-02-16T04:09:49.596Z,10.93
2023-02-16T04:13:51.168Z,11.63
2023-02-16T04:17:53.866Z,10.77
2023-02-16T04:21:55.404Z,11.90
2023-02-16T04:25:56.912Z,11.65
2023-02-16T04:29:58.403Z,10.57
2023-02-16T04:33:59.916Z,11.82
2023-02-16T04:38:01.438Z,10.73
2023-02-16T04:42:03.734Z,11.63
2023-02-16T04:46:05.334Z,10.90
2023-02-16T04:50:08.178Z,12.05
2023-02-16T04:54:09.861Z,11.88
2023-02-16T04:58:11.389Z,12.07
2023-02-16T05:02:13.083Z,10.00
2023-02-16T05:06:14.625Z,12.13
2023-02-16T05:10:16.144Z,12.23
2023-02-16T05:14:44.406Z,12.40
2023-02-16T05:18:45.940Z,11.82
2023-02-16T05:22:47.635Z,12.02
2023-02-16T05:26:49.148Z,11.80
2023-02-16T05:30:50.949Z,11.98
2023-02-16T05:34:52.473Z,11.77
2023-02-16T05:38:54.133Z,11.15
2023-02-16T05:42:55.856Z,11.40
2023-02-16T05:46:57.536Z,11.65
2023-02-16T05:50:59.102Z,11.23
2023-02-16T05:55:01.293Z,11.38
2023-02-16T05:59:05.064Z,10.82
2023-02-16T06:03:06.809Z,12.30
2023-02-16T06:07:08.356Z,11.82
2023-02-16T06:11:46.551Z,12.27
2023-02-16T06:19:52.200Z,10.68
2023-02-16T06:23:54.114Z,11.18
2023-02-16T06:27:56.853Z,11.93
2023-02-16T06:31:58.591Z,12.15
2023-02-16T06:36:00.241Z,11.90
2023-02-16T06:40:01.771Z,11.88
2023-02-16T06:44:06.217Z,11.65
2023-02-16T06:48:07.747Z,11.23
2023-02-16T06:52:09.922Z,12.55
2023-02-16T06:56:11.724Z,11.02
2023-02-16T07:00:15.085Z,10.82
2023-02-16T07:04:17.490Z,12.75
2023-02-16T07:08:19.011Z,12.32
2023-02-16T07:12:20.890Z,11.65
2023-02-16T07:16:22.425Z,11.50
2023-02-16T07:20:24.211Z,11.60
2023-02-16T07:24:26.199Z,12.75
2023-02-16T07:28:27.707Z,11.60
2023-02-16T07:32:29.717Z,11.05
2023-02-16T07:36:31.371Z,12.38
2023-02-16T07:40:32.943Z,11.50
2023-02-16T07:44:34.621Z,12.50
2023-02-16T07:48:36.361Z,11.10
2023-02-16T07:52:38.160Z,11.85
2023-02-16T07:56:39.645Z,11.73
2023-02-16T08:00:41.921Z,10.65
2023-02-16T08:04:43.983Z,11.95
2023-02-16T08:08:46.466Z,12.65
2023-02-16T08:12:49.677Z,10.40
2023-02-16T08:16:54.779Z,10.60
2023-02-16T08:21:04.336Z,12.18
2023-02-16T08:25:07.161Z,9.93
2023-02-16T08:29:10.385Z,11.50
2023-02-16T08:33:12.290Z,12.18
2023-02-16T08:37:41.473Z,10.23
2023-02-16T08:41:44.599Z,11.90
2023-02-16T08:45:47.694Z,10.77
2023-02-16T08:49:49.857Z,11.65
2023-02-16T08:53:52.296Z,11.45
2023-02-16T08:57:53.797Z,10.60
2023-02-16T09:01:59.979Z,10.77
2023-02-16T09:06:04.837Z,11.02
2023-02-16T09:10:08.082Z,11.88
2023-02-16T09:14:10.369Z,12.30
2023-02-16T09:18:12.695Z,10.68
2023-02-16T09:22:15.212Z,12.50
2023-02-16T09:26:18.447Z,11.00
2023-02-16T09:30:20.817Z,11.23
2023-02-16T09:34:23.404Z,10.80
2023-02-16T09:38:25.415Z,11.52
2023-02-16T09:42:48.670Z,11.73
2023-02-16T09:46:50.457Z,11.00
2023-02-16T09:50:54.902Z,12.15
2023-02-16T09:54:59.445Z,12.10
2023-02-16T09:59:12.620Z,11.93
2023-02-16T10:03:20.981Z,12.43
2023-02-16T10:07:32.831Z,11.95
2023-02-16T10:11:48.556Z,12.85
2023-02-16T10:15:53.905Z,12.55
2023-02-16T10:20:01.189Z,13.57
2023-02-16T10:24:07.441Z,12.88
2023-02-16T10:28:17.369Z,13.52
2023-02-16T10:32:27.010Z,14.00
2023-02-16T10:36:56.052Z,14.70
2023-02-16T10:41:13.993Z,13.82
2023-02-16T10:45:34.597Z,14.70
2023-02-16T10:49:37.188Z,13.82
2023-02-16T10:53:54.498Z,14.15
2023-02-16T11:02:16.994Z,14.43
2023-02-16T11:06:22.880Z,14.98
2023-02-16T11:10:48.179Z,15.10
2023-02-16T11:15:02.322Z,14.63
2023-02-16T11:19:07.637Z,14.43
2023-02-16T11:23:22.583Z,15.40
2023-02-16T11:27:24.318Z,14.60
2023-02-16T11:31:33.676Z,13.60
2023-02-16T11:35:43.494Z,15.68
2023-02-16T11:39:55.036Z,14.48
2023-02-16T11:43:57.777Z,14.98
2023-02-16T11:48:13.910Z,15.30
2023-02-16T11:52:27.024Z,14.60
2023-02-16T11:56:31.040Z,15.15
2023-02-16T12:00:34.528Z,14.32
2023-02-16T12:04:42.245Z,16.00
2023-02-16T12:09:14.423Z,14.40
2023-02-16T12:13:33.369Z,15.32
2023-02-16T12:17:34.999Z,14.45
2023-02-16T12:22:16.286Z,15.93
2023-02-16T12:26:42.659Z,16.08
2023-02-16T12:30:58.165Z,15.27
2023-02-16T12:35:18.129Z,14.90
2023-02-16T12:39:55.177Z,14.38
2023-02-16T12:44:08.002Z,16.75
2023-02-16T12:48:30.172Z,16.80
2023-02-16T12:52:54.063Z,16.25
2023-02-16T12:57:01.373Z,15.70
2023-02-16T13:01:12.005Z,17.40
2023-02-16T13:05:21.088Z,16.77
2023-02-16T13:09:50.180Z,16.77
2023-02-16T13:13:56.818Z,18.10
2023-02-16T13:18:06.862Z,17.52
2023-02-16T13:22:37.597Z,18.38
2023-02-16T13:27:18.298Z,16.30
2023-02-16T13:31:35.266Z,17.60
2023-02-16T13:36:18.908Z,18.02
2023-02-16T13:40:34.181Z,17.83
2023-02-16T13:44:45.784Z,16.17
2023-02-16T13:48:50.569Z,17.75
2023-02-16T13:52:54.550Z,16.67
2023-02-16T13:56:56.328Z,17.30
2023-02-16T14:00:59.020Z,16.20
2023-02-16T14:05:03.973Z,16.83
2023-02-16T14:09:14.649Z,17.58
2023-02-16T14:13:17.107Z,17.05
2023-02-16T14:17:21.705Z,16.45
2023-02-16T14:21:41.913Z,17.83
2023-02-16T14:25:43.509Z,16.67
2023-02-16T14:29:59.018Z,17.65
2023-02-16T14:34:12.472Z,16.65
2023-02-16T14:38:29.863Z,17.95
2023-02-16T14:42:34.130Z,17.00
2023-02-16T14:46:54.328Z,16.38
2023-02-16T14:51:01.719Z,16.55
2023-02-16T14:55:29.439Z,16.20
2023-02-16T14:59:57.182Z,16.35
2023-02-16T15:03:58.970Z,16.25
2023-02-16T15:08:16.840Z,17.00
2023-02-16T15:12:22.851Z,16.80
2023-02-16T15:16:24.779Z,16.02
2023-02-16T15:20:31.301Z,16.77
2023-02-16T15:24:34.296Z,17.13
2023-02-16T15:28:38.515Z,15.82
2023-02-16T15:32:41.343Z,16.20
2023-02-16T15:36:45.221Z,16.83
2023-02-16T15:40:47.852Z,16.65
2023-02-16T15:44:49.852Z,16.40
2023-02-16T15:48:51.602Z,17.25
2023-02-16T15:52:53.974Z,15.75
2023-02-16T15:56:58.426Z,16.20
2023-02-16T16:01:00.519Z,17.13
2023-02-16T16:05:05.881Z,16.23
2023-02-16T16:09:17.583Z,16.73
2023-02-16T16:13:24.013Z,15.27
2023-02-16T16:17:31.573Z,15.68
2023-02-16T16:21:39.096Z,16.80
2023-02-16T16:25:47.270Z,15.65
2023-02-16T16:29:48.980Z,16.38
2023-02-16T16:34:04.627Z,17.17
2023-02-16T16:38:21.319Z,17.15
2023-02-16T16:42:23.803Z,18.35
2023-02-16T16:46:29.778Z,16.80
2023-02-16T16:50:39.647Z,17.95
2023-02-16T16:54:41.526Z,17.88
2023-02-16T16:58:43.050Z,18.55
2023-02-16T17:02:45.045Z,18.02
2023-02-16T17:06:46.578Z,18.52
2023-02-16T17:10:48.343Z,19.42
2023-02-16T17:14:49.866Z,18.15
2023-02-16T17:18:51.555Z,18.90
2023-02-16T17:22:53.135Z,19.88
2023-02-16T17:26:55.109Z,18.20
2023-02-16T17:30:57.377Z,19.60
2023-02-16T17:34:59.004Z,19.42
2023-02-16T17:39:00.782Z,17.42
2023-02-16T17:43:02.499Z,17.70
2023-02-16T17:47:04.121Z,18.95
2023-02-16T17:51:10.283Z,19.17
2023-02-16T17:59:15.257Z,18.55
2023-02-16T18:03:18.006Z,19.33
2023-02-16T18:07:19.765Z,18.27
2023-02-16T18:11:21.244Z,19.02
2023-02-16T18:15:22.977Z,19.23
2023-02-16T18:19:24.634Z,18.35
2023-02-16T18:23:26.183Z,18.30
2023-02-16T18:27:29.421Z,18.45
2023-02-16T18:31:31.736Z,18.65
2023-02-16T18:35:33.362Z,17.52
2023-02-16T18:39:34.898Z,18.80
2023-02-16T18:43:37.214Z,17.48
2023-02-16T18:47:38.984Z,18.00
2023-02-16T18:51:40.538Z,17.80
2023-02-16T18:55:42.192Z,17.77
2023-02-16T18:59:43.858Z,19.27
2023-02-16T19:03:45.414Z,16.88
2023-02-16T19:07:47.184Z,18.23
2023-02-16T19:11:49.103Z,18.10
2023-02-16T19:15:50.644Z,17.65
2023-02-16T19:19:52.414Z,19.10
2023-02-16T19:23:53.980Z,18.33
2023-02-16T19:27:55.584Z,17.45
2023-02-16T19:31:57.395Z,18.13
2023-02-16T19:36:04.535Z,18.00
2023-02-16T19:40:08.514Z,18.67
2023-02-16T19:44:14.496Z,19.88
2023-02-16T19:48:16.720Z,19.70
2023-02-16T19:52:18.487Z,18.30
2023-02-16T19:56:23.882Z,19.33
2023-02-16T20:00:25.671Z,17.73
2023-02-16T20:04:27.506Z,18.90
2023-02-16T20:08:29.154Z,18.75
2023-02-16T20:12:30.856Z,20.80
2023-02-16T20:16:32.683Z,18.45
2023-02-16T20:20:35.462Z,18.45
2023-02-16T20:24:37.071Z,19.45
2023-02-16T20:28:39.637Z,18.48
2023-02-16T20:32:41.230Z,17.98
2023-02-16T20:36:42.964Z,18.85
2023-02-16T20:40:45.010Z,19.98
2023-02-16T20:44:46.678Z,17.13
2023-02-16T20:48:49.977Z,18.38
2023-02-16T20:52:51.919Z,20.17
2023-02-16T20:56:53.661Z,19.48
2023-02-16T21:00:55.440Z,20.38
2023-02-16T21:04:57.211Z,18.23
2023-02-16T21:08:58.999Z,19.70
2023-02-16T21:13:01.849Z,18.48
2023-02-16T21:17:04.670Z,17.33
2023-02-16T21:21:07.700Z,16.60
2023-02-16T21:25:09.571Z,17.63
2023-02-16T21:29:12.930Z,15.82
2023-02-16T21:33:15.416Z,15.38
2023-02-16T21:37:19.032Z,18.42
2023-02-16T21:41:28.632Z,16.77
2023-02-16T21:45:30.271Z,17.33
2023-02-16T21:49:31.953Z,15.90
2023-02-16T21:53:38.170Z,16.92
2023-02-16T21:57:39.900Z,16.25
2023-02-16T22:01:44.609Z,16.08
2023-02-16T22:05:46.748Z,17.33
2023-02-16T22:09:48.307Z,15.75
2023-02-16T22:13:55.953Z,16.70
2023-02-16T22:17:57.464Z,16.85
2023-02-16T22:21:59.647Z,16.88
2023-02-16T22:26:01.464Z,16.05
2023-02-16T22:30:12.607Z,15.82
2023-02-16T22:34:17.537Z,18.08
2023-02-16T22:38:19.309Z,16.40
2023-02-16T22:42:22.460Z,16.50
2023-02-16T22:46:25.267Z,16.23
2023-02-16T22:50:27.830Z,15.43
2023-02-16T22:54:29.445Z,16.58
2023-02-16T22:58:33.235Z,16.48
2023-02-16T23:02:37.946Z,15.88
2023-02-16T23:06:39.729Z,14.70
2023-02-16T23:10:59.456Z,16.38
2023-02-16T23:15:01.085Z,15.32
2023-02-16T23:19:03.139Z,15.45
2023-02-16T23:23:04.700Z,13.77
2023-02-16T23:27:06.271Z,13.70
2023-02-16T23:31:08.748Z,13.82
2023-02-16T23:35:10.376Z,14.50
2023-02-16T23:39:16.049Z,14.48
2023-02-16T23:43:17.647Z,12.65
2023-02-16T23:47:19.778Z,14.15
2023-02-16T23:51:21.499Z,15.18
2023-02-16T23:55:23.247Z,14.80
2023-02-16T23:59:25.838Z,14.88
